Relatórios de METAR próximas

 

LPPR - Porto, Portugal, PT
Distance from station: N 52km
Actualizado: 26/07/2021 03:00
Nevoeiro, Encoberto
Nevoeiro, Encoberto
 Vento de calm
Vento: Calmo
Temperatura: 16°C
Ponto de Orvalho: 15°C
Humidade: 94%
Barómetro: 1015 hPa
Resumo: Nevoeiro
Nuvens: Encoberto
Visibilidade: 0 km
Cloud details: Encoberto 30 m
2021/07/26 02:00 LPPR 260200Z 00000KT 0350 0300N R17/0400N FG VV001 16/15 Q1015